Terminal Aerodrome Forecast
Issued by NWS Blacksburg, VA

Home | Current Version | Previous Version | Text Only | Print | Product List | Glossary On
Versions: 1 2 3 4 5 6 7 8 9 10 11 12 13 14 15 16 17 18 19 20 21 22 23 24 25 26 27 28 29 30 31 32 33 34 35 36 37 38 39 40 41
000
FTUS41 KRNK 021239 AAB
TAFROA
TAF AMD
KROA 021239Z 0213/0312 26010KT P6SM OVC028 WS020/30042KT
     FM021400 28015G25KT P6SM SCT020 BKN050
     FM021900 30012G20KT P6SM SCT250
     FM030000 32005KT P6SM SKC
     FM030900 13003KT P6SM OVC025=

USA.gov is the U.S. government's official web portal to all federal, state and local government web resources and services.